Time;durP1;ratioP1;P1;durP2;ratioP2;P2;SDS_P1;SDS_P2;PMS_P1;PMS_P2;Temp;Humidity;BMP_temperature;BMP_pressure;BME280_temperature;BME280_humidity;BME280_pressure;Samples;Min_cycle;Max_cycle;Signal;HPM_P1;HPM_P2
2024/01/26 00:01:22;;;;;;;;;;;;;;;;;;;;;
2024/01/26 00:03:48;;;;;;;14.68;9.70;;;;;;;8.61;100.00;102245.34;4971968;28;20029;-92
2024/01/26 00:06:13;;;;;;;17.27;9.93;;;;;;;8.62;100.00;102244.50;4949656;28;20142;-94
2024/01/26 00:08:39;;;;;;;15.52;9.30;;;;;;;8.63;100.00;102251.44;4960240;28;20031;-92
2024/01/26 00:11:04;;;;;;;17.00;9.20;;;;;;;8.61;100.00;102242.75;4954905;28;20050;-92
2024/01/26 00:13:30;;;;;;;13.35;9.20;;;;;;;8.63;100.00;102235.84;4967037;28;20037;-93
2024/01/26 00:15:55;;;;;;;14.27;9.50;;;;;;;8.64;100.00;102232.41;4950638;28;20034;-92
2024/01/26 00:18:20;;;;;;;13.48;8.93;;;;;;;8.65;100.00;102234.16;4961323;28;20114;-92
2024/01/26 00:20:46;;;;;;;14.07;9.10;;;;;;;8.65;100.00;102223.78;4951271;28;20030;-93
2024/01/26 00:23:11;;;;;;;15.23;9.20;;;;;;;8.67;100.00;102230.69;4969198;28;20460;-93
2024/01/26 00:25:37;;;;;;;13.45;8.98;;;;;;;8.67;100.00;102230.69;4949021;28;20031;-92
2024/01/26 00:28:04;;;;;;;14.10;9.15;;;;;;;8.67;100.00;102236.72;4968069;28;20372;-93
2024/01/26 00:30:29;;;;;;;13.88;9.50;;;;;;;8.67;100.00;102228.94;4962956;28;20019;-93
2024/01/26 00:32:56;;;;;;;14.93;9.35;;;;;;;8.70;100.00;102220.34;4969170;28;20030;-91
2024/01/26 00:35:22;;;;;;;15.00;9.65;;;;;;;8.70;100.00;102233.31;4969045;28;20022;-92
2024/01/26 00:37:47;;;;;;;14.10;9.35;;;;;;;8.71;100.00;102227.25;4965739;28;20089;-91
2024/01/26 00:40:13;;;;;;;13.73;8.93;;;;;;;8.69;100.00;102228.97;4947838;28;20476;-91
2024/01/26 00:42:38;;;;;;;12.60;8.70;;;;;;;8.72;100.00;102226.38;4948958;28;20086;-93
2024/01/26 00:45:04;;;;;;;11.80;8.40;;;;;;;8.71;100.00;102222.91;4962111;28;20035;-92
2024/01/26 00:47:30;;;;;;;12.85;8.88;;;;;;;8.74;100.00;102216.88;4965752;28;20557;-91
2024/01/26 00:49:55;;;;;;;12.73;8.52;;;;;;;8.71;100.00;102217.72;4944998;28;20499;-93
2024/01/26 00:52:20;;;;;;;13.43;8.95;;;;;;;8.73;100.00;102231.59;4964136;28;20042;-92
2024/01/26 00:54:46;;;;;;;11.73;8.52;;;;;;;8.72;100.00;102226.38;4950712;28;20495;-93
2024/01/26 00:57:11;;;;;;;12.82;8.77;;;;;;;8.72;100.00;102228.97;4948809;28;20084;-92
2024/01/26 00:59:36;;;;;;;12.02;8.10;;;;;;;8.72;100.00;102223.78;4967724;28;20588;-92
2024/01/26 01:02:02;;;;;;;14.85;8.77;;;;;;;8.74;100.00;102214.28;4944369;28;20039;-92
2024/01/26 01:04:30;;;;;;;11.25;8.32;;;;;;;8.75;100.00;102210.81;4949185;28;20031;-92
2024/01/26 01:06:56;;;;;;;12.00;8.02;;;;;;;8.74;100.00;102211.69;4951423;28;20080;-94
2024/01/26 01:09:21;;;;;;;12.98;8.50;;;;;;;8.75;100.00;102209.09;4952817;28;20026;-92
2024/01/26 01:11:47;;;;;;;13.35;8.52;;;;;;;8.75;100.00;102208.22;4945124;28;20023;-92
2024/01/26 01:14:12;;;;;;;12.52;8.38;;;;;;;8.76;100.00;102204.78;4958920;28;20046;-94
2024/01/26 01:16:39;;;;;;;12.32;8.02;;;;;;;8.78;100.00;102213.44;4967727;28;20054;-92
2024/01/26 01:19:06;;;;;;;11.48;8.23;;;;;;;8.76;100.00;102213.44;4967837;28;20025;-93
2024/01/26 01:21:32;;;;;;;10.52;8.00;;;;;;;8.78;100.00;102208.25;4970467;28;20053;-92
2024/01/26 01:23:57;;;;;;;10.52;7.70;;;;;;;8.81;100.00;102208.25;4952851;28;20492;-93
2024/01/26 01:26:23;;;;;;;10.68;7.32;;;;;;;8.78;100.00;102203.06;4952129;28;20026;-93
2024/01/26 01:28:48;;;;;;;13.60;7.88;;;;;;;8.80;100.00;102206.53;4966130;28;20507;-93
2024/01/26 01:31:14;;;;;;;11.23;7.50;;;;;;;8.79;100.00;102197.00;4952148;28;20034;-94
2024/01/26 01:33:39;;;;;;;11.93;7.30;;;;;;;8.80;100.00;102196.16;4969633;28;20034;-93
2024/01/26 01:36:05;;;;;;;10.63;6.53;;;;;;;8.79;100.00;102194.41;4951301;28;20054;-94
2024/01/26 01:38:30;;;;;;;9.55;6.72;;;;;;;8.80;100.00;102189.22;4953008;28;20027;-94
2024/01/26 01:40:56;;;;;;;9.07;6.18;;;;;;;8.81;100.00;102187.50;4953238;28;20034;-94
2024/01/26 01:43:21;;;;;;;9.25;6.20;;;;;;;8.80;100.00;102189.22;4950294;28;20106;-93
2024/01/26 01:45:49;;;;;;;8.38;6.05;;;;;;;8.79;100.00;102174.53;4951427;28;20416;-93
2024/01/26 01:48:17;;;;;;;8.07;5.53;;;;;;;8.80;100.00;102176.25;4972425;28;20034;-95
2024/01/26 01:50:43;;;;;;;8.10;5.68;;;;;;;8.79;100.00;102171.94;4949043;28;21086;-93
2024/01/26 01:53:08;;;;;;;8.40;5.50;;;;;;;8.81;100.00;102177.97;4952584;28;20081;-93
2024/01/26 01:55:35;;;;;;;7.82;5.28;;;;;;;8.80;100.00;102172.78;4949151;28;20035;-92
2024/01/26 01:58:01;;;;;;;8.68;5.20;;;;;;;8.81;100.00;102161.56;4952269;28;20039;-93
2024/01/26 02:00:26;;;;;;;8.75;5.32;;;;;;;8.77;100.00;102159.81;4965154;28;20480;-92
2024/01/26 02:02:52;;;;;;;8.05;5.35;;;;;;;8.79;100.00;102171.06;4958960;28;20031;-91
2024/01/26 02:05:18;;;;;;;7.05;4.80;;;;;;;8.78;100.00;102167.59;4964180;28;20039;-92
2024/01/26 02:07:50;;;;;;;7.82;4.85;;;;;;;8.79;100.00;102163.28;4963884;28;20025;-92
2024/01/26 02:10:16;;;;;;;7.90;5.22;;;;;;;8.77;100.00;102154.63;4968324;28;20089;-92
2024/01/26 02:12:42;;;;;;;6.43;4.45;;;;;;;8.77;100.00;102159.81;4952194;28;20334;-93
2024/01/26 02:15:08;;;;;;;6.28;4.40;;;;;;;8.78;100.00;102156.34;4968774;28;20023;-93
2024/01/26 02:17:37;;;;;;;6.43;4.40;;;;;;;8.75;100.00;102136.47;4949850;28;20429;-93
2024/01/26 02:20:06;;;;;;;6.38;4.53;;;;;;;8.76;100.00;102138.19;4962618;28;20031;-91
2024/01/26 02:22:32;;;;;;;6.28;4.35;;;;;;;8.77;100.00;102133.84;4952969;28;20508;-92
2024/01/26 02:24:58;;;;;;;6.75;4.18;;;;;;;8.77;100.00;102129.53;4966997;28;20510;-93
2024/01/26 02:27:26;;;;;;;6.47;4.18;;;;;;;8.77;100.00;102126.06;4967954;28;20106;-92
2024/01/26 02:29:52;;;;;;;6.07;4.28;;;;;;;8.78;100.00;102126.09;4966952;28;20038;-92
2024/01/26 02:32:17;;;;;;;5.60;3.92;;;;;;;8.78;100.00;102120.91;4951234;28;20039;-92
2024/01/26 02:34:43;;;;;;;6.40;4.03;;;;;;;8.80;100.00;102118.28;4970973;28;20045;-93
2024/01/26 02:37:11;;;;;;;6.03;3.78;;;;;;;8.78;100.00;102109.63;4951753;28;20031;-93
2024/01/26 02:39:37;;;;;;;4.97;3.80;;;;;;;8.79;100.00;102111.38;4971083;28;20023;-93
2024/01/26 02:42:03;;;;;;;4.93;3.80;;;;;;;8.79;100.00;102116.56;4949336;28;20468;-93
2024/01/26 02:44:30;;;;;;;5.68;3.75;;;;;;;8.82;100.00;102116.56;4947441;28;20038;-93
2024/01/26 02:46:56;;;;;;;6.63;3.80;;;;;;;8.79;100.00;102101.88;4950793;28;20058;-94
2024/01/26 02:49:21;;;;;;;5.15;3.58;;;;;;;8.81;100.00;102104.47;4947011;28;20705;-92
2024/01/26 02:51:46;;;;;;;4.50;3.40;;;;;;;8.80;100.00;102088.00;4934198;28;20982;-93
2024/01/26 02:54:12;;;;;;;4.78;3.30;;;;;;;8.80;100.00;102098.38;4926987;29;20039;-94
2024/01/26 02:56:37;;;;;;;5.63;3.60;;;;;;;8.81;100.00;102105.31;4928759;29;20043;-93
2024/01/26 02:59:03;;;;;;;5.65;3.42;;;;;;;8.81;100.00;102091.50;4930458;29;20549;-93
2024/01/26 03:01:28;;;;;;;4.93;3.53;;;;;;;8.82;100.00;102085.44;4927187;29;20526;-92
2024/01/26 03:03:53;;;;;;;6.13;3.67;;;;;;;8.83;100.00;102076.78;4933081;29;20031;-92
2024/01/26 03:06:21;;;;;;;4.78;3.05;;;;;;;8.82;100.00;102077.66;4927978;29;20051;-94
2024/01/26 03:08:46;;;;;;;4.18;2.95;;;;;;;8.80;100.00;102071.59;4946344;28;20109;-93
2024/01/26 03:11:13;;;;;;;3.97;2.78;;;;;;;8.82;100.00;102069.88;4927560;29;20040;-93
2024/01/26 03:13:39;;;;;;;4.82;2.85;;;;;;;8.80;100.00;102058.63;4929788;29;20114;-92
2024/01/26 03:16:05;;;;;;;5.15;3.00;;;;;;;8.80;100.00;102056.03;4928242;29;20547;-93
2024/01/26 03:18:31;;;;;;;4.93;3.20;;;;;;;8.80;100.00;102058.63;4926920;29;20118;-93
2024/01/26 03:20:56;;;;;;;5.63;3.20;;;;;;;8.81;100.00;102058.59;4923846;29;20550;-92
2024/01/26 03:23:21;;;;;;;3.65;2.83;;;;;;;8.81;100.00;102052.56;4933004;29;20019;-91
2024/01/26 03:25:47;;;;;;;5.35;3.00;;;;;;;8.82;100.00;102056.91;4931746;29;20436;-93
2024/01/26 03:28:12;;;;;;;4.63;3.15;;;;;;;8.82;100.00;102036.13;4946705;29;20525;-94
2024/01/26 03:30:38;;;;;;;4.90;3.38;;;;;;;8.83;100.00;102035.28;4932613;29;20404;-92
2024/01/26 03:33:04;;;;;;;4.95;3.40;;;;;;;8.83;100.00;102026.59;4930281;29;20020;-92
2024/01/26 03:35:29;;;;;;;5.03;3.28;;;;;;;8.83;100.00;102030.06;4938430;29;20027;-93
2024/01/26 03:37:55;;;;;;;4.90;3.42;;;;;;;8.85;100.00;102017.09;4923360;29;20036;-94
2024/01/26 03:40:24;;;;;;;6.15;3.20;;;;;;;8.84;100.00;102016.25;4928752;29;20031;-93
2024/01/26 03:43:03;;;;;;;5.22;3.17;;;;;;;8.84;100.00;102023.16;4928606;29;20024;-93
2024/01/26 03:45:31;;;;;;;4.50;3.40;;;;;;;8.83;100.00;102024.88;4929011;29;20031;-94
2024/01/26 03:47:56;;;;;;;4.63;3.20;;;;;;;8.84;100.00;102026.63;4928062;29;20074;-93
2024/01/26 03:50:22;;;;;;;5.90;3.10;;;;;;;8.85;100.00;102027.47;4927077;29;20481;-92
2024/01/26 03:52:47;;;;;;;4.78;3.42;;;;;;;8.88;100.00;102011.91;4962895;28;20058;-94
2024/01/26 03:55:12;;;;;;;5.78;3.00;;;;;;;8.90;100.00;102010.19;4963753;28;20113;-93
2024/01/26 03:57:40;;;;;;;5.43;3.03;;;;;;;8.89;100.00;102014.50;4966112;28;20031;-93
2024/01/26 04:00:09;;;;;;;4.80;3.33;;;;;;;8.89;100.00;102005.84;4969535;28;20468;-94
2024/01/26 04:02:37;;;;;;;5.05;3.20;;;;;;;8.91;100.00;102002.38;4970979;28;20019;-95
2024/01/26 04:05:03;;;;;;;4.70;3.10;;;;;;;8.90;100.00;101998.06;4967572;28;20476;-93
2024/01/26 04:07:28;;;;;;;6.97;3.30;;;;;;;8.92;100.00;101993.72;4953843;28;20035;-93
2024/01/26 04:09:54;;;;;;;4.20;3.33;;;;;;;8.94;100.00;101997.19;4961362;28;20089;-94
2024/01/26 04:12:19;;;;;;;4.85;3.50;;;;;;;8.94;100.00;101986.81;4951767;28;20111;-92
2024/01/26 04:14:45;;;;;;;5.65;3.70;;;;;;;8.95;100.00;101985.09;4957751;28;20069;-93
2024/01/26 04:17:31;;;;;;;;;;;;;;;;;;;;;
2024/01/26 04:20:06;;;;;;;6.10;3.90;;;;;;;8.97;100.00;101983.34;4953452;28;20043;-94
2024/01/26 04:22:32;;;;;;;9.25;4.18;;;;;;;8.98;100.00;101977.28;4967861;28;20082;-92
2024/01/26 04:24:59;;;;;;;7.90;4.50;;;;;;;9.01;100.00;101971.25;4954298;28;20035;-94
2024/01/26 04:27:27;;;;;;;6.85;4.55;;;;;;;9.04;100.00;101961.72;4969446;28;20029;-94
2024/01/26 04:30:00;;;;;;;7.32;4.85;;;;;;;9.07;100.00;101961.72;4954008;28;20022;-93
2024/01/26 04:32:26;;;;;;;7.30;4.90;;;;;;;9.09;100.00;101951.31;4970274;28;20110;-93
2024/01/26 04:34:54;;;;;;;8.38;5.15;;;;;;;9.10;100.00;101940.06;4967922;28;20058;-95
2024/01/26 04:37:19;;;;;;;7.43;4.95;;;;;;;9.11;100.00;101932.31;4953394;28;20097;-92
2024/01/26 04:39:50;;;;;;;8.15;5.15;;;;;;;9.14;100.00;101933.16;4949396;28;20797;-94
2024/01/26 04:42:23;;;;;;;8.47;5.00;;;;;;;9.13;100.00;101940.06;4950766;28;20429;-95
2024/01/26 04:44:50;;;;;;;8.30;5.40;;;;;;;9.12;100.00;101946.13;4930399;28;20121;-93
2024/01/26 04:47:16;;;;;;;7.32;4.85;;;;;;;9.11;100.00;101934.00;4965830;28;20070;-93
2024/01/26 04:49:44;;;;;;;7.20;4.60;;;;;;;9.11;100.00;101919.31;4969317;28;20054;-93
2024/01/26 04:52:10;;;;;;;7.32;4.88;;;;;;;9.12;100.00;101902.00;4948296;28;20050;-92
2024/01/26 04:54:38;;;;;;;7.63;5.47;;;;;;;9.11;100.00;101915.84;4945945;28;20110;-94
2024/01/26 04:57:07;;;;;;;8.63;5.45;;;;;;;9.10;100.00;101919.31;4962361;28;20050;-94
2024/01/26 04:59:41;;;;;;;7.97;4.97;;;;;;;9.10;100.00;101940.06;4966466;28;20106;-94
2024/01/26 05:02:17;;;;;;;7.20;4.72;;;;;;;9.11;100.00;101939.22;4967192;28;20468;-92
2024/01/26 05:04:50;;;;;;;7.93;5.10;;;;;;;9.11;100.00;101921.03;4949565;28;20035;-93
2024/01/26 05:07:15;;;;;;;9.02;5.53;;;;;;;9.09;100.00;101920.16;4967006;28;20069;-94
2024/01/26 05:09:50;;;;;;;;;;;;;;;;;;;;;
2024/01/26 05:12:16;;;;;;;8.30;5.35;;;;;;;9.08;100.00;101937.50;4966503;28;20371;-93
2024/01/26 05:14:49;;;;;;;8.38;5.78;;;;;;;9.07;100.00;101925.38;4965457;28;20110;-94
2024/01/26 05:17:15;;;;;;;8.50;5.72;;;;;;;9.11;100.00;101918.44;4970672;28;20493;-93
2024/01/26 05:20:05;;;;;;;7.65;5.60;;;;;;;9.10;100.00;101919.31;4953625;28;20194;-94
2024/01/26 05:22:41;;;;;;;;;;;;;;;;;;;;;
2024/01/26 05:25:07;;;;;;;8.18;5.82;;;;;;;9.06;100.00;101913.25;4969202;28;20403;-95
2024/01/26 05:30:23;;;;;;;8.15;5.78;;;;;;;9.07;100.00;101888.16;4968591;28;20113;-92
2024/01/26 05:32:48;;;;;;;8.07;6.05;;;;;;;9.06;100.00;101873.44;4945499;28;20082;-93
2024/01/26 05:35:13;;;;;;;9.18;5.72;;;;;;;9.05;100.00;101879.53;4961786;28;20038;-94
2024/01/26 05:37:49;;;;;;;;;;;;;;;;;;;;;
2024/01/26 05:40:17;;;;;;;9.32;5.57;;;;;;;9.06;100.00;101886.44;4966585;28;20030;-94
2024/01/26 05:42:44;;;;;;;10.00;5.90;;;;;;;9.05;100.00;101882.13;4968002;28;20027;-93
2024/01/26 05:45:10;;;;;;;8.95;6.32;;;;;;;9.06;100.00;101873.44;4967227;28;20110;-92
2024/01/26 05:47:35;;;;;;;8.85;6.15;;;;;;;9.06;100.00;101871.72;4968448;28;20155;-95
2024/01/26 05:50:04;;;;;;;11.38;6.28;;;;;;;9.05;100.00;101861.38;4950305;28;20704;-94
2024/01/26 05:52:30;;;;;;;10.15;6.05;;;;;;;9.04;100.00;101857.03;4951008;28;20066;-93
2024/01/26 05:54:57;;;;;;;10.70;6.20;;;;;;;9.02;100.00;101843.19;4972220;28;20066;-96
2024/01/26 05:57:23;;;;;;;7.47;5.80;;;;;;;8.99;100.00;101856.19;4947074;28;20027;-94
2024/01/26 05:59:48;;;;;;;8.52;5.65;;;;;;;9.00;100.00;101855.31;4968973;28;20066;-94
2024/01/26 06:02:17;;;;;;;7.47;5.78;;;;;;;8.97;100.00;101856.16;4970041;28;20019;-92
2024/01/26 06:04:45;;;;;;;7.28;5.65;;;;;;;8.98;100.00;101851.84;4956272;28;20030;-92
2024/01/26 06:07:13;;;;;;;9.60;5.88;;;;;;;8.96;100.00;101857.06;4969708;28;20026;-91
2024/01/26 06:09:39;;;;;;;7.78;5.75;;;;;;;8.92;100.00;101839.78;4952994;28;20495;-91
2024/01/26 06:12:08;;;;;;;8.52;6.15;;;;;;;8.92;100.00;101843.22;4941707;28;20023;-92
2024/01/26 06:14:35;;;;;;;7.65;5.65;;;;;;;8.92;100.00;101840.63;4962725;28;20082;-95
2024/01/26 06:17:00;;;;;;;8.48;6.07;;;;;;;8.92;100.00;101848.41;4945839;28;20054;-93
2024/01/26 06:19:26;;;;;;;8.90;6.40;;;;;;;8.91;100.00;101849.25;4953757;28;20546;-92
2024/01/26 06:21:51;;;;;;;9.23;6.20;;;;;;;8.91;100.00;101843.22;4951801;28;20377;-92
2024/01/26 06:24:17;;;;;;;8.95;6.13;;;;;;;8.92;100.00;101838.03;4962842;28;20061;-93
2024/01/26 06:26:42;;;;;;;7.97;5.63;;;;;;;8.88;100.00;101835.44;4947341;28;20378;-92
2024/01/26 06:29:08;;;;;;;8.27;6.32;;;;;;;8.89;100.00;101824.19;4971678;28;20154;-93
2024/01/26 06:31:36;;;;;;;8.90;6.68;;;;;;;8.87;100.00;101823.34;4944719;28;20199;-94
2024/01/26 06:34:04;;;;;;;8.32;6.30;;;;;;;8.85;100.00;101814.69;4963279;28;20046;-93
2024/01/26 06:36:29;;;;;;;9.23;6.57;;;;;;;8.88;100.00;101820.72;4969931;28;20081;-91
2024/01/26 06:38:55;;;;;;;9.10;6.90;;;;;;;8.89;100.00;101816.41;4971958;28;20706;-91
2024/01/26 06:41:26;;;;;;;10.00;6.63;;;;;;;8.89;100.00;101826.78;4965116;28;20041;-94
2024/01/26 06:43:51;;;;;;;9.90;6.82;;;;;;;8.88;100.00;101812.94;4952364;28;20034;-95
2024/01/26 06:46:22;;;;;;;10.07;7.32;;;;;;;8.91;100.00;101817.28;4970969;28;20022;-92
2024/01/26 06:48:48;;;;;;;9.75;7.30;;;;;;;8.91;100.00;101825.06;4943708;28;20034;-93
2024/01/26 06:51:14;;;;;;;8.55;6.65;;;;;;;8.90;100.00;101824.19;4959927;28;20139;-94
2024/01/26 06:53:52;;;;;;;;;;;;;;;;;;;;;
2024/01/26 06:56:18;;;;;;;9.27;7.20;;;;;;;8.91;100.00;101820.72;4968104;28;20255;-96
2024/01/26 06:58:44;;;;;;;9.95;7.20;;;;;;;8.91;100.00;101812.94;4972472;28;20109;-95
2024/01/26 07:01:11;;;;;;;9.40;6.45;;;;;;;8.93;100.00;101811.19;4947530;28;20073;-94
2024/01/26 07:03:39;;;;;;;8.88;6.20;;;;;;;8.93;100.00;101818.13;4968161;28;20027;-96
2024/01/26 07:06:16;;;;;;;8.00;5.70;;;;;;;8.96;100.00;101810.34;4952618;28;20022;-96
2024/01/26 07:08:41;;;;;;;9.75;5.50;;;;;;;8.95;100.00;101806.88;4962776;28;20026;-94
2024/01/26 07:11:18;;;;;;;8.98;5.65;;;;;;;8.99;100.00;101809.47;4954041;28;20057;-95
2024/01/26 07:13:56;;;;;;;;;;;;;;;;;;;;;
2024/01/26 07:16:22;;;;;;;8.35;5.80;;;;;;;9.02;100.00;101801.66;4972067;28;20476;-93
2024/01/26 07:18:47;;;;;;;7.97;5.57;;;;;;;9.04;100.00;101792.16;4972592;28;20102;-92
2024/01/26 07:21:18;;;;;;;7.85;5.60;;;;;;;9.05;100.00;101789.53;4972008;28;20062;-92
2024/01/26 07:23:43;;;;;;;9.02;5.68;;;;;;;9.08;100.00;101793.84;4972044;28;20026;-93
2024/01/26 07:26:09;;;;;;;7.88;5.30;;;;;;;9.09;100.00;101785.19;4972389;28;20023;-93
2024/01/26 07:28:34;;;;;;;8.38;5.35;;;;;;;9.08;100.00;101779.16;4955336;28;20357;-95
2024/01/26 07:30:59;;;;;;;7.03;5.00;;;;;;;9.09;100.00;101774.81;4956623;28;20034;-92
2024/01/26 07:33:25;;;;;;;8.35;5.18;;;;;;;9.10;100.00;101779.13;4972411;28;20030;-91
2024/01/26 07:35:50;;;;;;;9.55;5.68;;;;;;;9.11;100.00;101780.84;4957440;28;20031;-95
2024/01/26 07:38:16;;;;;;;7.13;4.85;;;;;;;9.13;100.00;101783.47;4950275;28;20027;-92
2024/01/26 07:40:41;;;;;;;7.57;4.70;;;;;;;9.17;100.00;101786.03;4969376;28;20022;-91
2024/01/26 07:43:08;;;;;;;6.70;4.60;;;;;;;9.16;100.00;101768.72;4970208;28;20022;-92
2024/01/26 07:45:34;;;;;;;6.35;4.45;;;;;;;9.19;100.00;101779.09;4952811;28;20031;-92
2024/01/26 07:48:00;;;;;;;8.15;4.72;;;;;;;9.23;100.00;101780.78;4970171;28;20034;-91
2024/01/26 07:50:25;;;;;;;9.05;4.82;;;;;;;9.26;100.00;101775.59;4968809;28;20027;-92
2024/01/26 07:52:50;;;;;;;7.53;4.60;;;;;;;9.31;100.00;101793.72;4964300;28;20093;-92
2024/01/26 07:55:17;;;;;;;7.47;4.72;;;;;;;9.34;100.00;101798.06;4970117;28;20045;-92
2024/01/26 07:57:42;;;;;;;6.88;4.30;;;;;;;9.36;100.00;101802.38;4969921;28;20031;-92
2024/01/26 08:00:08;;;;;;;7.60;4.70;;;;;;;9.36;100.00;101801.53;4967485;28;20114;-94
2024/01/26 08:02:35;;;;;;;7.60;4.50;;;;;;;9.41;100.00;101812.72;4962939;28;20034;-94
2024/01/26 08:05:00;;;;;;;8.13;4.72;;;;;;;9.46;100.00;101831.75;4970183;28;20035;-91
2024/01/26 08:07:26;;;;;;;6.55;5.13;;;;;;;9.48;100.00;101827.41;4955477;28;20538;-95
2024/01/26 08:09:51;;;;;;;9.80;5.40;;;;;;;9.51;100.00;101830.00;4968026;28;20035;-93
2024/01/26 08:12:17;;;;;;;8.85;4.88;;;;;;;9.51;100.00;101837.81;4943556;28;20032;-92
2024/01/26 08:14:42;;;;;;;10.25;5.35;;;;;;;9.55;100.00;101849.91;4969028;28;20507;-93
2024/01/26 08:17:08;;;;;;;6.82;4.93;;;;;;;9.55;100.00;101836.91;4951964;28;20089;-93
2024/01/26 08:19:35;;;;;;;11.10;5.35;;;;;;;9.56;100.00;101829.97;4970239;28;20077;-92
2024/01/26 08:22:01;;;;;;;9.20;5.15;;;;;;;9.59;100.00;101829.97;4952972;28;20063;-92
2024/01/26 08:24:26;;;;;;;9.32;5.30;;;;;;;9.61;100.00;101845.53;4959436;28;20026;-95
2024/01/26 08:26:52;;;;;;;8.20;4.90;;;;;;;9.65;100.00;101834.25;4958957;28;21391;-94
2024/01/26 08:29:21;;;;;;;6.72;4.72;;;;;;;9.65;100.00;101821.25;4966225;28;20079;-94
2024/01/26 08:31:47;;;;;;;9.02;5.00;;;;;;;9.69;100.00;101833.38;4947011;28;20031;-93
2024/01/26 08:34:13;;;;;;;7.82;4.93;;;;;;;9.71;100.00;101834.22;4952080;28;20027;-94
2024/01/26 08:36:38;;;;;;;7.35;4.45;;;;;;;9.69;100.00;101836.81;4963848;28;20476;-93
2024/01/26 08:39:04;;;;;;;9.10;4.88;;;;;;;9.72;100.00;101828.16;4944086;28;20030;-92
2024/01/26 08:41:29;;;;;;;9.88;4.95;;;;;;;9.72;100.00;101830.75;4949311;28;20023;-93
2024/01/26 08:43:55;;;;;;;6.78;4.80;;;;;;;9.72;100.00;101841.16;4969665;28;20101;-93
2024/01/26 08:46:22;;;;;;;10.05;4.63;;;;;;;9.71;100.00;101834.22;4968522;28;20031;-93
2024/01/26 08:48:47;;;;;;;6.88;4.30;;;;;;;9.76;100.00;101840.25;4954080;28;20027;-92
2024/01/26 08:51:13;;;;;;;6.30;4.25;;;;;;;9.79;100.00;101829.84;4947153;28;20078;-93
2024/01/26 08:53:38;;;;;;;8.52;4.57;;;;;;;9.84;100.00;101824.59;4968585;28;20047;-92
2024/01/26 08:56:05;;;;;;;6.30;4.68;;;;;;;9.86;100.00;101833.25;4961429;28;20054;-93
2024/01/26 08:58:30;;;;;;;6.88;4.50;;;;;;;9.90;100.00;101841.91;4964700;28;20105;-93
2024/01/26 09:00:56;;;;;;;6.55;4.57;;;;;;;9.91;100.00;101841.00;4970090;28;20745;-93
2024/01/26 09:03:21;;;;;;;6.03;4.43;;;;;;;9.95;100.00;101829.72;4951057;28;20039;-93
2024/01/26 09:05:46;;;;;;;7.43;4.47;;;;;;;9.94;100.00;101841.00;4955454;28;20043;-93
2024/01/26 09:08:12;;;;;;;5.63;4.18;;;;;;;9.95;100.00;101838.41;4964125;28;20463;-95
2024/01/26 09:10:37;;;;;;;6.90;4.13;;;;;;;9.96;100.00;101831.44;4962415;28;20058;-93
2024/01/26 09:13:03;;;;;;;6.85;4.13;;;;;;;9.97;100.00;101833.19;4961813;28;20607;-93
2024/01/26 09:15:28;;;;;;;5.57;3.63;;;;;;;9.97;100.00;101831.47;4963924;28;20051;-91
2024/01/26 09:17:56;;;;;;;6.57;4.18;;;;;;;9.97;100.00;101865.25;4952144;28;20027;-95
2024/01/26 09:20:21;;;;;;;7.60;4.72;;;;;;;9.95;100.00;101863.53;4957424;28;20033;-93
2024/01/26 09:22:46;;;;;;;6.35;4.60;;;;;;;9.93;100.00;101875.66;4964716;28;20058;-93
2024/01/26 09:25:12;;;;;;;5.65;4.10;;;;;;;9.92;100.00;101887.81;4964650;28;20031;-91
2024/01/26 09:27:37;;;;;;;5.95;3.60;;;;;;;9.92;100.00;101907.72;4933268;28;20026;-91
2024/01/26 09:30:04;;;;;;;4.40;2.13;;;;;;;9.84;100.00;101933.75;4965285;28;20053;-93
2024/01/26 09:32:29;;;;;;;2.83;1.35;;;;;;;9.79;100.00;101925.13;4963416;28;20027;-93
2024/01/26 09:34:55;;;;;;;3.60;1.30;;;;;;;9.66;100.00;101942.50;4972586;28;20109;-91
2024/01/26 09:37:20;;;;;;;2.72;1.10;;;;;;;9.61;100.00;101939.06;4936987;28;20027;-93
2024/01/26 09:39:46;;;;;;;4.20;1.00;;;;;;;9.59;100.00;101948.59;4942018;28;20532;-95
2024/01/26 09:42:11;;;;;;;5.75;1.42;;;;;;;9.56;100.00;101939.09;4960350;28;20046;-92
2024/01/26 09:44:37;;;;;;;3.50;0.85;;;;;;;9.55;100.00;101955.53;4962343;28;20130;-92
2024/01/26 09:47:06;;;;;;;4.45;1.00;;;;;;;9.57;100.00;101944.25;4947483;28;21882;-93
2024/01/26 09:49:35;;;;;;;2.70;1.00;;;;;;;9.55;100.00;101956.44;4967443;28;20089;-95
2024/01/26 09:52:03;;;;;;;5.28;1.05;;;;;;;9.51;100.00;101977.19;4982781;28;20047;-94
2024/01/26 09:54:28;;;;;;;4.72;1.23;;;;;;;9.49;100.00;101995.41;4970285;28;20027;-93
2024/01/26 09:56:55;;;;;;;3.90;0.80;;;;;;;9.31;100.00;102003.22;4961497;28;20374;-95
2024/01/26 09:59:20;;;;;;;4.57;1.05;;;;;;;9.19;100.00;102043.06;4947913;28;20050;-96
2024/01/26 10:01:46;;;;;;;3.33;0.85;;;;;;;9.10;100.00;102057.78;4965220;28;20061;-93
2024/01/26 10:04:11;;;;;;;4.00;0.90;;;;;;;9.04;100.00;102033.56;4954869;28;20109;-92
2024/01/26 10:06:37;;;;;;;10.80;0.98;;;;;;;9.06;100.00;102083.72;4967442;28;20035;-91
2024/01/26 10:09:04;;;;;;;3.38;0.77;;;;;;;8.95;100.00;102076.78;4945477;28;20123;-93
2024/01/26 10:11:31;;;;;;;4.63;0.75;;;;;;;8.97;100.00;102081.97;4944366;28;20027;-91
2024/01/26 10:13:56;;;;;;;2.33;0.73;;;;;;;8.97;100.00;102100.16;4965265;28;20503;-92
2024/01/26 10:16:21;;;;;;;3.78;0.70;;;;;;;8.98;100.00;102090.66;4949760;28;20031;-93
2024/01/26 10:18:47;;;;;;;5.30;0.80;;;;;;;8.94;100.00;102108.81;4965251;28;21405;-91
2024/01/26 10:21:14;;;;;;;5.47;0.95;;;;;;;8.93;100.00;102095.84;4946106;28;20072;-92
2024/01/26 10:23:40;;;;;;;6.03;1.02;;;;;;;8.87;100.00;102098.41;4947529;28;20116;-92
2024/01/26 10:26:11;;;;;;;5.47;1.00;;;;;;;8.85;100.00;102106.22;4967656;28;20495;-92
2024/01/26 10:28:39;;;;;;;5.00;0.93;;;;;;;8.84;100.00;102121.75;4965376;28;20034;-95
2024/01/26 10:32:34;;;;;;;;;;;;;;;;;;;;;
2024/01/26 10:34:53;;;;;;;5.53;0.88;;;;;;;8.78;100.00;102141.66;4898627;29;20040;-93
2024/01/26 10:37:21;;;;;;;10.30;1.30;;;;;;;8.78;100.00;102159.81;4901460;29;20040;-90
2024/01/26 10:39:47;;;;;;;5.38;1.00;;;;;;;8.76;100.00;102158.06;4947513;28;20360;-92
2024/01/26 10:42:14;;;;;;;5.80;1.13;;;;;;;8.77;100.00;102154.63;4970599;28;20050;-92
2024/01/26 10:44:39;;;;;;;6.63;0.93;;;;;;;8.73;100.00;102158.06;4949857;28;20039;-92
2024/01/26 10:47:08;;;;;;;6.90;1.30;;;;;;;8.71;100.00;102181.41;4969628;28;20027;-90
2024/01/26 10:49:36;;;;;;;8.85;1.27;;;;;;;8.72;100.00;102177.06;4965492;28;20110;-91
2024/01/26 10:52:04;;;;;;;9.63;1.33;;;;;;;8.73;100.00;102199.56;4966671;28;20051;-94
2024/01/26 10:54:30;;;;;;;6.55;0.98;;;;;;;8.76;100.00;102195.28;4950296;28;20112;-90
2024/01/26 10:56:56;;;;;;;6.10;1.08;;;;;;;8.77;100.00;102193.53;4972359;28;20027;-92
2024/01/26 10:59:21;;;;;;;9.15;1.50;;;;;;;8.76;100.00;102221.22;4964507;28;20047;-94
2024/01/26 11:01:47;;;;;;;6.88;1.15;;;;;;;8.71;100.00;102211.69;4954643;28;20026;-91
2024/01/26 11:04:13;;;;;;;5.72;0.90;;;;;;;8.61;100.00;102218.56;4946354;28;20027;-92
2024/01/26 11:06:41;;;;;;;10.00;0.93;;;;;;;8.52;97.93;102228.88;4949264;28;20026;-92
2024/01/26 11:09:08;;;;;;;6.47;1.10;;;;;;;8.45;97.81;102248.69;4974395;28;20095;-91
2024/01/26 11:11:38;;;;;;;5.78;0.95;;;;;;;8.45;93.92;102246.09;4967421;28;20022;-91
2024/01/26 11:14:06;;;;;;;6.80;0.90;;;;;;;8.43;92.90;102268.56;4972513;28;20026;-94
2024/01/26 11:16:35;;;;;;;7.15;0.90;;;;;;;8.34;90.00;102284.94;4966506;28;20039;-93
2024/01/26 11:19:34;;;;;;;4.53;0.77;;;;;;;8.34;87.84;102272.84;4971479;28;20054;-96
2024/01/26 11:22:03;;;;;;;6.38;0.95;;;;;;;8.41;86.99;102299.69;4953775;28;20042;-93
2024/01/26 11:24:31;;;;;;;4.40;0.75;;;;;;;8.42;84.11;102323.88;4969689;28;20029;-94
2024/01/26 11:27:10;;;;;;;3.70;0.70;;;;;;;8.42;84.09;102316.97;4968558;28;20511;-95
2024/01/26 11:29:40;;;;;;;1.80;0.60;;;;;;;8.43;84.83;102299.69;4953805;28;20027;-95
2024/01/26 11:32:43;;;;;;;4.95;0.70;;;;;;;8.47;84.26;102307.50;4959918;28;20027;-96
2024/01/26 11:35:26;;;;;;;3.33;0.50;;;;;;;8.49;83.37;102321.38;4977751;28;20037;-95
2024/01/26 11:38:04;;;;;;;;;;;;;;;;;;;;;
2024/01/26 11:40:39;;;;;;;3.15;0.90;;;;;;;8.49;80.61;102333.50;4971203;28;20041;-96